sensor_id;sensor_type;location;lat;lon;timestamp;temperature;humidity
65058;HTU21D;51644;51.068;5.860;2022-09-17T00:00:00;11.81;84.54
65058;HTU21D;51644;51.068;5.860;2022-09-17T00:01:00;11.83;84.31
65058;HTU21D;51644;51.068;5.860;2022-09-17T00:01:59;11.88;83.84
65058;HTU21D;51644;51.068;5.860;2022-09-17T00:02:57;11.87;83.83
65058;HTU21D;51644;51.068;5.860;2022-09-17T00:03:57;11.92;83.45
65058;HTU21D;51644;51.068;5.860;2022-09-17T00:05:01;11.91;83.45
65058;HTU21D;51644;51.068;5.860;2022-09-17T00:06:08;11.88;83.68
65058;HTU21D;51644;51.068;5.860;2022-09-17T00:07:07;11.94;83.17
65058;HTU21D;51644;51.068;5.860;2022-09-17T00:08:08;11.92;83.45
65058;HTU21D;51644;51.068;5.860;2022-09-17T00:09:08;11.97;83.07
65058;HTU21D;51644;51.068;5.860;2022-09-17T00:10:07;11.97;82.92
65058;HTU21D;51644;51.068;5.860;2022-09-17T00:11:14;11.93;83.23
65058;HTU21D;51644;51.068;5.860;2022-09-17T00:12:13;11.91;83.33
65058;HTU21D;51644;51.068;5.860;2022-09-17T00:13:12;11.94;83.25
65058;HTU21D;51644;51.068;5.860;2022-09-17T00:14:16;11.90;83.49
65058;HTU21D;51644;51.068;5.860;2022-09-17T00:15:15;11.91;83.42
65058;HTU21D;51644;51.068;5.860;2022-09-17T00:16:25;11.98;83.12
65058;HTU21D;51644;51.068;5.860;2022-09-17T00:17:24;11.96;83.23
65058;HTU21D;51644;51.068;5.860;2022-09-17T00:18:25;12.00;83.04
65058;HTU21D;51644;51.068;5.860;2022-09-17T00:19:24;11.96;83.29
65058;HTU21D;51644;51.068;5.860;2022-09-17T00:20:26;12.01;83.07
65058;HTU21D;51644;51.068;5.860;2022-09-17T00:21:25;12.05;83.04
65058;HTU21D;51644;51.068;5.860;2022-09-17T00:22:24;12.04;82.93
65058;HTU21D;51644;51.068;5.860;2022-09-17T00:23:22;12.03;83.06
65058;HTU21D;51644;51.068;5.860;2022-09-17T00:24:23;12.03;82.97
65058;HTU21D;51644;51.068;5.860;2022-09-17T00:25:22;12.06;82.78
65058;HTU21D;51644;51.068;5.860;2022-09-17T00:26:21;12.06;82.94
65058;HTU21D;51644;51.068;5.860;2022-09-17T00:27:19;12.03;83.05
65058;HTU21D;51644;51.068;5.860;2022-09-17T00:28:18;12.06;82.82
65058;HTU21D;51644;51.068;5.860;2022-09-17T00:29:16;12.06;82.86
65058;HTU21D;51644;51.068;5.860;2022-09-17T00:30:15;12.08;82.71
65058;HTU21D;51644;51.068;5.860;2022-09-17T00:31:13;12.05;82.74
65058;HTU21D;51644;51.068;5.860;2022-09-17T00:32:15;12.06;82.83
65058;HTU21D;51644;51.068;5.860;2022-09-17T00:33:16;12.06;82.71
65058;HTU21D;51644;51.068;5.860;2022-09-17T00:34:19;12.02;82.90
65058;HTU21D;51644;51.068;5.860;2022-09-17T00:35:18;11.99;83.04
65058;HTU21D;51644;51.068;5.860;2022-09-17T00:36:17;11.98;83.10
65058;HTU21D;51644;51.068;5.860;2022-09-17T00:37:18;12.00;82.98
65058;HTU21D;51644;51.068;5.860;2022-09-17T00:38:17;11.98;83.00
65058;HTU21D;51644;51.068;5.860;2022-09-17T00:39:15;12.02;82.87
65058;HTU21D;51644;51.068;5.860;2022-09-17T00:40:14;12.06;82.73
65058;HTU21D;51644;51.068;5.860;2022-09-17T00:41:12;12.10;82.80
65058;HTU21D;51644;51.068;5.860;2022-09-17T00:42:12;12.13;82.62
65058;HTU21D;51644;51.068;5.860;2022-09-17T00:43:11;12.17;82.49
65058;HTU21D;51644;51.068;5.860;2022-09-17T00:45:39;12.19;82.36
65058;HTU21D;51644;51.068;5.860;2022-09-17T00:46:42;12.20;82.33
65058;HTU21D;51644;51.068;5.860;2022-09-17T00:48:01;12.19;82.30
65058;HTU21D;51644;51.068;5.860;2022-09-17T00:49:06;12.18;82.28
65058;HTU21D;51644;51.068;5.860;2022-09-17T00:50:16;12.13;82.64
65058;HTU21D;51644;51.068;5.860;2022-09-17T00:51:23;12.11;82.56
65058;HTU21D;51644;51.068;5.860;2022-09-17T00:52:28;12.10;82.55
65058;HTU21D;51644;51.068;5.860;2022-09-17T00:53:29;12.11;82.72
65058;HTU21D;51644;51.068;5.860;2022-09-17T00:54:28;12.04;82.73
65058;HTU21D;51644;51.068;5.860;2022-09-17T00:55:30;11.99;83.20
65058;HTU21D;51644;51.068;5.860;2022-09-17T00:56:33;12.06;82.82
65058;HTU21D;51644;51.068;5.860;2022-09-17T00:57:33;12.05;82.88
65058;HTU21D;51644;51.068;5.860;2022-09-17T00:58:36;12.00;82.94
65058;HTU21D;51644;51.068;5.860;2022-09-17T00:59:35;12.01;82.97
65058;HTU21D;51644;51.068;5.860;2022-09-17T01:00:34;11.94;83.21
65058;HTU21D;51644;51.068;5.860;2022-09-17T01:01:35;11.96;83.10
65058;HTU21D;51644;51.068;5.860;2022-09-17T01:02:34;11.97;83.01
65058;HTU21D;51644;51.068;5.860;2022-09-17T01:03:33;11.93;83.16
65058;HTU21D;51644;51.068;5.860;2022-09-17T01:04:32;11.90;83.39
65058;HTU21D;51644;51.068;5.860;2022-09-17T01:05:34;11.90;83.37
65058;HTU21D;51644;51.068;5.860;2022-09-17T01:08:06;11.86;83.68
65058;HTU21D;51644;51.068;5.860;2022-09-17T01:09:35;11.87;83.54
65058;HTU21D;51644;51.068;5.860;2022-09-17T01:11:01;11.83;83.65
65058;HTU21D;51644;51.068;5.860;2022-09-17T01:12:15;11.82;83.63
65058;HTU21D;51644;51.068;5.860;2022-09-17T01:13:33;11.74;83.89
65058;HTU21D;51644;51.068;5.860;2022-09-17T01:16:05;11.75;83.69
65058;HTU21D;51644;51.068;5.860;2022-09-17T01:17:19;11.76;83.71
65058;HTU21D;51644;51.068;5.860;2022-09-17T01:18:40;11.77;83.84
65058;HTU21D;51644;51.068;5.860;2022-09-17T01:20:06;11.71;84.06
65058;HTU21D;51644;51.068;5.860;2022-09-17T01:21:37;11.67;84.55
65058;HTU21D;51644;51.068;5.860;2022-09-17T01:23:18;11.71;84.32
65058;HTU21D;51644;51.068;5.860;2022-09-17T01:24:44;11.75;83.81
65058;HTU21D;51644;51.068;5.860;2022-09-17T01:26:05;11.79;83.84
65058;HTU21D;51644;51.068;5.860;2022-09-17T01:31:28;11.86;83.62
65058;HTU21D;51644;51.068;5.860;2022-09-17T01:35:13;11.90;83.62
65058;HTU21D;51644;51.068;5.860;2022-09-17T01:38:43;11.89;83.59
65058;HTU21D;51644;51.068;5.860;2022-09-17T01:39:38;11.88;83.74
65058;HTU21D;51644;51.068;5.860;2022-09-17T01:41:05;11.89;83.72
65058;HTU21D;51644;51.068;5.860;2022-09-17T01:42:18;11.90;83.68
65058;HTU21D;51644;51.068;5.860;2022-09-17T01:43:28;11.92;83.57
65058;HTU21D;51644;51.068;5.860;2022-09-17T01:44:50;11.92;83.48
65058;HTU21D;51644;51.068;5.860;2022-09-17T01:46:07;11.96;83.55
65058;HTU21D;51644;51.068;5.860;2022-09-17T01:47:20;11.93;83.70
65058;HTU21D;51644;51.068;5.860;2022-09-17T01:48:26;11.93;83.64
65058;HTU21D;51644;51.068;5.860;2022-09-17T01:49:29;11.91;83.87
65058;HTU21D;51644;51.068;5.860;2022-09-17T01:50:35;11.92;83.71
65058;HTU21D;51644;51.068;5.860;2022-09-17T01:51:38;11.96;83.65
65058;HTU21D;51644;51.068;5.860;2022-09-17T01:52:43;11.96;83.61
65058;HTU21D;51644;51.068;5.860;2022-09-17T01:54:06;11.94;83.68
65058;HTU21D;51644;51.068;5.860;2022-09-17T01:55:13;11.97;83.72
65058;HTU21D;51644;51.068;5.860;2022-09-17T01:56:18;11.98;83.59
65058;HTU21D;51644;51.068;5.860;2022-09-17T01:57:28;12.04;83.42
65058;HTU21D;51644;51.068;5.860;2022-09-17T01:58:39;12.05;83.42
65058;HTU21D;51644;51.068;5.860;2022-09-17T01:59:50;12.03;83.44
65058;HTU21D;51644;51.068;5.860;2022-09-17T02:00:57;12.04;83.51
65058;HTU21D;51644;51.068;5.860;2022-09-17T02:02:09;12.04;83.49
65058;HTU21D;51644;51.068;5.860;2022-09-17T02:03:21;12.06;83.30
65058;HTU21D;51644;51.068;5.860;2022-09-17T02:04:30;12.08;83.29
65058;HTU21D;51644;51.068;5.860;2022-09-17T02:05:39;12.10;83.20
65058;HTU21D;51644;51.068;5.860;2022-09-17T02:06:45;12.14;83.14
65058;HTU21D;51644;51.068;5.860;2022-09-17T02:07:55;12.07;83.28
65058;HTU21D;51644;51.068;5.860;2022-09-17T02:09:03;12.12;83.33
65058;HTU21D;51644;51.068;5.860;2022-09-17T02:10:28;12.12;83.23
65058;HTU21D;51644;51.068;5.860;2022-09-17T02:11:27;12.14;83.26
65058;HTU21D;51644;51.068;5.860;2022-09-17T02:12:34;12.13;83.14
65058;HTU21D;51644;51.068;5.860;2022-09-17T02:13:59;12.15;83.11
65058;HTU21D;51644;51.068;5.860;2022-09-17T02:15:04;12.14;83.13
65058;HTU21D;51644;51.068;5.860;2022-09-17T02:16:23;12.16;83.07
65058;HTU21D;51644;51.068;5.860;2022-09-17T02:17:59;12.20;83.04
65058;HTU21D;51644;51.068;5.860;2022-09-17T02:19:04;12.21;83.06
65058;HTU21D;51644;51.068;5.860;2022-09-17T02:20:05;12.20;83.02
65058;HTU21D;51644;51.068;5.860;2022-09-17T02:21:15;12.25;82.91
65058;HTU21D;51644;51.068;5.860;2022-09-17T02:22:22;12.26;82.79
65058;HTU21D;51644;51.068;5.860;2022-09-17T02:23:29;12.29;82.80
65058;HTU21D;51644;51.068;5.860;2022-09-17T02:24:35;12.30;82.71
65058;HTU21D;51644;51.068;5.860;2022-09-17T02:25:59;12.34;82.52
65058;HTU21D;51644;51.068;5.860;2022-09-17T02:27:05;12.28;82.77
65058;HTU21D;51644;51.068;5.860;2022-09-17T02:28:19;12.31;82.53
65058;HTU21D;51644;51.068;5.860;2022-09-17T02:29:39;12.33;82.55
65058;HTU21D;51644;51.068;5.860;2022-09-17T02:30:39;12.33;82.42
65058;HTU21D;51644;51.068;5.860;2022-09-17T02:31:37;12.34;82.35
65058;HTU21D;51644;51.068;5.860;2022-09-17T02:32:37;12.35;82.34
65058;HTU21D;51644;51.068;5.860;2022-09-17T02:33:39;12.34;82.43
65058;HTU21D;51644;51.068;5.860;2022-09-17T02:34:39;12.37;82.31
65058;HTU21D;51644;51.068;5.860;2022-09-17T02:35:47;12.35;82.15
65058;HTU21D;51644;51.068;5.860;2022-09-17T02:36:46;12.40;82.15
65058;HTU21D;51644;51.068;5.860;2022-09-17T02:37:45;12.40;82.16
65058;HTU21D;51644;51.068;5.860;2022-09-17T02:38:45;12.42;82.06
65058;HTU21D;51644;51.068;5.860;2022-09-17T02:39:44;12.42;82.06
65058;HTU21D;51644;51.068;5.860;2022-09-17T02:40:49;12.45;82.05
65058;HTU21D;51644;51.068;5.860;2022-09-17T02:42:06;12.45;81.97
65058;HTU21D;51644;51.068;5.860;2022-09-17T02:43:26;12.42;81.84
65058;HTU21D;51644;51.068;5.860;2022-09-17T02:47:16;12.48;81.75
65058;HTU21D;51644;51.068;5.860;2022-09-17T02:49:34;12.46;81.93
65058;HTU21D;51644;51.068;5.860;2022-09-17T02:52:03;12.46;81.90
65058;HTU21D;51644;51.068;5.860;2022-09-17T02:54:29;12.45;81.83
65058;HTU21D;51644;51.068;5.860;2022-09-17T02:57:02;12.45;81.81
65058;HTU21D;51644;51.068;5.860;2022-09-17T02:58:25;12.42;81.85
65058;HTU21D;51644;51.068;5.860;2022-09-17T02:59:51;12.42;81.95
65058;HTU21D;51644;51.068;5.860;2022-09-17T03:00:54;12.43;81.94
65058;HTU21D;51644;51.068;5.860;2022-09-17T03:02:30;12.45;81.99
65058;HTU21D;51644;51.068;5.860;2022-09-17T03:03:40;12.41;81.91
65058;HTU21D;51644;51.068;5.860;2022-09-17T03:04:41;12.44;82.01
65058;HTU21D;51644;51.068;5.860;2022-09-17T03:05:42;12.44;81.97
65058;HTU21D;51644;51.068;5.860;2022-09-17T03:06:45;12.46;81.94
65058;HTU21D;51644;51.068;5.860;2022-09-17T03:07:44;12.48;81.91
65058;HTU21D;51644;51.068;5.860;2022-09-17T03:08:44;12.49;81.89
65058;HTU21D;51644;51.068;5.860;2022-09-17T03:09:45;12.51;81.85
65058;HTU21D;51644;51.068;5.860;2022-09-17T03:10:43;12.52;81.84
65058;HTU21D;51644;51.068;5.860;2022-09-17T03:11:42;12.53;81.87
65058;HTU21D;51644;51.068;5.860;2022-09-17T03:12:41;12.55;81.77
65058;HTU21D;51644;51.068;5.860;2022-09-17T03:13:40;12.56;81.78
65058;HTU21D;51644;51.068;5.860;2022-09-17T03:14:38;12.52;81.81
65058;HTU21D;51644;51.068;5.860;2022-09-17T03:15:37;12.55;81.70
65058;HTU21D;51644;51.068;5.860;2022-09-17T03:16:35;12.55;81.82
65058;HTU21D;51644;51.068;5.860;2022-09-17T03:17:34;12.56;81.77
65058;HTU21D;51644;51.068;5.860;2022-09-17T03:18:33;12.56;81.68
65058;HTU21D;51644;51.068;5.860;2022-09-17T03:19:32;12.56;81.73
65058;HTU21D;51644;51.068;5.860;2022-09-17T03:20:30;12.58;81.62
65058;HTU21D;51644;51.068;5.860;2022-09-17T03:21:29;12.57;81.68
65058;HTU21D;51644;51.068;5.860;2022-09-17T03:22:28;12.50;81.58
65058;HTU21D;51644;51.068;5.860;2022-09-17T03:23:27;12.48;81.97
65058;HTU21D;51644;51.068;5.860;2022-09-17T03:24:25;12.50;81.82
65058;HTU21D;51644;51.068;5.860;2022-09-17T03:25:24;12.51;81.73
65058;HTU21D;51644;51.068;5.860;2022-09-17T03:26:23;12.52;81.71
65058;HTU21D;51644;51.068;5.860;2022-09-17T03:27:23;12.55;81.68
65058;HTU21D;51644;51.068;5.860;2022-09-17T03:28:22;12.56;81.71
65058;HTU21D;51644;51.068;5.860;2022-09-17T03:29:22;12.53;81.71
65058;HTU21D;51644;51.068;5.860;2022-09-17T03:30:21;12.55;81.69
65058;HTU21D;51644;51.068;5.860;2022-09-17T03:31:20;12.55;81.79
65058;HTU21D;51644;51.068;5.860;2022-09-17T03:32:18;12.55;81.72
65058;HTU21D;51644;51.068;5.860;2022-09-17T03:33:17;12.51;81.68
65058;HTU21D;51644;51.068;5.860;2022-09-17T03:34:16;12.52;81.77
65058;HTU21D;51644;51.068;5.860;2022-09-17T03:35:15;12.47;81.97
65058;HTU21D;51644;51.068;5.860;2022-09-17T03:36:13;12.46;81.84
65058;HTU21D;51644;51.068;5.860;2022-09-17T03:37:12;12.42;82.23
65058;HTU21D;51644;51.068;5.860;2022-09-17T03:38:12;12.43;82.01
65058;HTU21D;51644;51.068;5.860;2022-09-17T03:39:11;12.43;82.06
65058;HTU21D;51644;51.068;5.860;2022-09-17T03:40:09;12.44;82.01
65058;HTU21D;51644;51.068;5.860;2022-09-17T03:41:08;12.43;82.04
65058;HTU21D;51644;51.068;5.860;2022-09-17T03:42:07;12.44;81.93
65058;HTU21D;51644;51.068;5.860;2022-09-17T03:43:05;12.43;82.02
65058;HTU21D;51644;51.068;5.860;2022-09-17T03:44:04;12.42;82.08
65058;HTU21D;51644;51.068;5.860;2022-09-17T03:45:03;12.44;82.07
65058;HTU21D;51644;51.068;5.860;2022-09-17T03:46:02;12.45;82.02
65058;HTU21D;51644;51.068;5.860;2022-09-17T03:47:00;12.44;82.10
65058;HTU21D;51644;51.068;5.860;2022-09-17T03:47:59;12.46;82.04
65058;HTU21D;51644;51.068;5.860;2022-09-17T03:48:58;12.45;82.04
65058;HTU21D;51644;51.068;5.860;2022-09-17T03:49:56;12.45;82.05
65058;HTU21D;51644;51.068;5.860;2022-09-17T03:50:55;12.45;82.01
65058;HTU21D;51644;51.068;5.860;2022-09-17T03:51:54;12.45;82.00
65058;HTU21D;51644;51.068;5.860;2022-09-17T03:52:52;12.45;82.04
65058;HTU21D;51644;51.068;5.860;2022-09-17T03:53:51;12.44;82.02
65058;HTU21D;51644;51.068;5.860;2022-09-17T03:54:49;12.41;82.16
65058;HTU21D;51644;51.068;5.860;2022-09-17T03:55:48;12.31;82.52
65058;HTU21D;51644;51.068;5.860;2022-09-17T03:56:47;12.32;82.46
65058;HTU21D;51644;51.068;5.860;2022-09-17T03:57:46;12.27;82.49
65058;HTU21D;51644;51.068;5.860;2022-09-17T03:58:44;12.30;82.54
65058;HTU21D;51644;51.068;5.860;2022-09-17T03:59:43;12.29;82.58
65058;HTU21D;51644;51.068;5.860;2022-09-17T04:00:41;12.25;82.75
65058;HTU21D;51644;51.068;5.860;2022-09-17T04:01:43;12.19;82.81
65058;HTU21D;51644;51.068;5.860;2022-09-17T04:02:42;12.13;83.25
65058;HTU21D;51644;51.068;5.860;2022-09-17T04:03:41;12.13;83.31
65058;HTU21D;51644;51.068;5.860;2022-09-17T04:04:39;12.11;83.36
65058;HTU21D;51644;51.068;5.860;2022-09-17T04:05:38;12.11;83.49
65058;HTU21D;51644;51.068;5.860;2022-09-17T04:06:36;12.11;83.53
65058;HTU21D;51644;51.068;5.860;2022-09-17T04:07:35;12.08;83.55
65058;HTU21D;51644;51.068;5.860;2022-09-17T04:08:33;12.14;83.42
65058;HTU21D;51644;51.068;5.860;2022-09-17T04:09:33;12.13;83.48
65058;HTU21D;51644;51.068;5.860;2022-09-17T04:10:32;12.17;83.40
65058;HTU21D;51644;51.068;5.860;2022-09-17T04:11:30;12.20;83.27
65058;HTU21D;51644;51.068;5.860;2022-09-17T04:12:29;12.17;83.22
65058;HTU21D;51644;51.068;5.860;2022-09-17T04:13:28;12.07;84.01
65058;HTU21D;51644;51.068;5.860;2022-09-17T04:14:26;12.12;83.55
65058;HTU21D;51644;51.068;5.860;2022-09-17T04:15:25;12.13;83.42
65058;HTU21D;51644;51.068;5.860;2022-09-17T04:16:23;12.11;83.44
65058;HTU21D;51644;51.068;5.860;2022-09-17T04:17:22;12.12;83.45
65058;HTU21D;51644;51.068;5.860;2022-09-17T04:18:20;12.07;83.51
65058;HTU21D;51644;51.068;5.860;2022-09-17T04:19:19;12.04;83.62
65058;HTU21D;51644;51.068;5.860;2022-09-17T04:20:17;12.01;83.78
65058;HTU21D;51644;51.068;5.860;2022-09-17T04:21:16;11.99;83.98
65058;HTU21D;51644;51.068;5.860;2022-09-17T04:22:15;12.00;83.86
65058;HTU21D;51644;51.068;5.860;2022-09-17T04:23:13;12.01;83.97
65058;HTU21D;51644;51.068;5.860;2022-09-17T04:24:12;11.99;83.98
65058;HTU21D;51644;51.068;5.860;2022-09-17T04:25:10;12.01;84.09
65058;HTU21D;51644;51.068;5.860;2022-09-17T04:26:09;12.01;84.03
65058;HTU21D;51644;51.068;5.860;2022-09-17T04:27:08;12.02;84.08
65058;HTU21D;51644;51.068;5.860;2022-09-17T04:28:06;12.01;84.25
65058;HTU21D;51644;51.068;5.860;2022-09-17T04:29:05;12.04;84.16
65058;HTU21D;51644;51.068;5.860;2022-09-17T04:30:04;12.01;84.25
65058;HTU21D;51644;51.068;5.860;2022-09-17T04:31:02;12.06;84.03
65058;HTU21D;51644;51.068;5.860;2022-09-17T04:32:01;12.07;84.03
65058;HTU21D;51644;51.068;5.860;2022-09-17T04:33:00;12.11;83.93
65058;HTU21D;51644;51.068;5.860;2022-09-17T04:33:59;12.13;83.86
65058;HTU21D;51644;51.068;5.860;2022-09-17T04:34:57;12.11;84.00
65058;HTU21D;51644;51.068;5.860;2022-09-17T04:35:56;12.12;83.78
65058;HTU21D;51644;51.068;5.860;2022-09-17T04:36:54;12.13;83.69
65058;HTU21D;51644;51.068;5.860;2022-09-17T04:37:54;12.12;83.52
65058;HTU21D;51644;51.068;5.860;2022-09-17T04:38:53;12.10;83.51
65058;HTU21D;51644;51.068;5.860;2022-09-17T04:39:52;12.05;83.67
65058;HTU21D;51644;51.068;5.860;2022-09-17T04:40:50;12.07;83.64
65058;HTU21D;51644;51.068;5.860;2022-09-17T04:41:49;12.07;83.61
65058;HTU21D;51644;51.068;5.860;2022-09-17T04:42:47;12.06;83.55
65058;HTU21D;51644;51.068;5.860;2022-09-17T04:43:49;12.06;83.49
65058;HTU21D;51644;51.068;5.860;2022-09-17T04:44:47;12.07;83.58
65058;HTU21D;51644;51.068;5.860;2022-09-17T04:45:46;12.10;83.47
65058;HTU21D;51644;51.068;5.860;2022-09-17T04:46:45;12.11;83.34
65058;HTU21D;51644;51.068;5.860;2022-09-17T04:47:44;12.10;83.27
65058;HTU21D;51644;51.068;5.860;2022-09-17T04:48:42;12.13;83.27
65058;HTU21D;51644;51.068;5.860;2022-09-17T04:49:41;12.10;83.26
65058;HTU21D;51644;51.068;5.860;2022-09-17T04:50:39;12.12;83.29
65058;HTU21D;51644;51.068;5.860;2022-09-17T04:51:38;12.10;83.18
65058;HTU21D;51644;51.068;5.860;2022-09-17T04:52:41;12.04;83.20
65058;HTU21D;51644;51.068;5.860;2022-09-17T04:53:40;12.07;83.23
65058;HTU21D;51644;51.068;5.860;2022-09-17T04:54:39;12.01;83.49
65058;HTU21D;51644;51.068;5.860;2022-09-17T04:55:38;12.00;83.45
65058;HTU21D;51644;51.068;5.860;2022-09-17T04:56:37;11.94;83.71
65058;HTU21D;51644;51.068;5.860;2022-09-17T04:57:35;11.96;83.49
65058;HTU21D;51644;51.068;5.860;2022-09-17T04:58:34;11.91;83.76
65058;HTU21D;51644;51.068;5.860;2022-09-17T04:59:32;11.87;83.74
65058;HTU21D;51644;51.068;5.860;2022-09-17T05:00:31;11.84;83.72
65058;HTU21D;51644;51.068;5.860;2022-09-17T05:01:29;11.85;83.75
65058;HTU21D;51644;51.068;5.860;2022-09-17T05:02:28;11.84;83.87
65058;HTU21D;51644;51.068;5.860;2022-09-17T05:03:26;11.83;83.84
65058;HTU21D;51644;51.068;5.860;2022-09-17T05:04:25;11.82;83.85
65058;HTU21D;51644;51.068;5.860;2022-09-17T05:05:24;11.82;83.91
65058;HTU21D;51644;51.068;5.860;2022-09-17T05:06:23;11.74;84.07
65058;HTU21D;51644;51.068;5.860;2022-09-17T05:07:21;11.77;84.04
65058;HTU21D;51644;51.068;5.860;2022-09-17T05:08:20;11.74;84.06
65058;HTU21D;51644;51.068;5.860;2022-09-17T05:09:21;11.73;83.98
65058;HTU21D;51644;51.068;5.860;2022-09-17T05:10:21;11.73;84.06
65058;HTU21D;51644;51.068;5.860;2022-09-17T05:11:20;11.72;84.10
65058;HTU21D;51644;51.068;5.860;2022-09-17T05:12:18;11.72;84.03
65058;HTU21D;51644;51.068;5.860;2022-09-17T05:13:17;11.74;84.03
65058;HTU21D;51644;51.068;5.860;2022-09-17T05:14:16;11.75;84.05
65058;HTU21D;51644;51.068;5.860;2022-09-17T05:15:15;11.76;83.99
65058;HTU21D;51644;51.068;5.860;2022-09-17T05:16:13;11.74;84.07
65058;HTU21D;51644;51.068;5.860;2022-09-17T05:17:12;11.77;83.98
65058;HTU21D;51644;51.068;5.860;2022-09-17T05:18:10;11.82;83.92
65058;HTU21D;51644;51.068;5.860;2022-09-17T05:19:09;11.85;83.84
65058;HTU21D;51644;51.068;5.860;2022-09-17T05:20:08;11.87;83.70
65058;HTU21D;51644;51.068;5.860;2022-09-17T05:21:07;11.89;83.60
65058;HTU21D;51644;51.068;5.860;2022-09-17T05:22:05;11.85;83.68
65058;HTU21D;51644;51.068;5.860;2022-09-17T05:23:04;11.87;83.78
65058;HTU21D;51644;51.068;5.860;2022-09-17T05:24:03;11.89;83.52
65058;HTU21D;51644;51.068;5.860;2022-09-17T05:25:02;11.91;83.63
65058;HTU21D;51644;51.068;5.860;2022-09-17T05:26:00;11.94;83.46
65058;HTU21D;51644;51.068;5.860;2022-09-17T05:26:59;11.99;83.34
65058;HTU21D;51644;51.068;5.860;2022-09-17T05:27:58;11.93;83.46
65058;HTU21D;51644;51.068;5.860;2022-09-17T05:28:58;12.00;83.23
65058;HTU21D;51644;51.068;5.860;2022-09-17T05:29:57;12.01;83.15
65058;HTU21D;51644;51.068;5.860;2022-09-17T05:30:59;12.03;82.99
65058;HTU21D;51644;51.068;5.860;2022-09-17T05:31:57;12.04;82.92
65058;HTU21D;51644;51.068;5.860;2022-09-17T05:33:01;12.02;82.99
65058;HTU21D;51644;51.068;5.860;2022-09-17T05:34:00;12.02;83.04
65058;HTU21D;51644;51.068;5.860;2022-09-17T05:34:59;11.99;82.91
65058;HTU21D;51644;51.068;5.860;2022-09-17T05:35:57;11.96;82.94
65058;HTU21D;51644;51.068;5.860;2022-09-17T05:36:57;11.93;83.10
65058;HTU21D;51644;51.068;5.860;2022-09-17T05:38:03;11.89;83.42
65058;HTU21D;51644;51.068;5.860;2022-09-17T05:39:02;11.88;83.16
65058;HTU21D;51644;51.068;5.860;2022-09-17T05:40:03;11.90;83.38
65058;HTU21D;51644;51.068;5.860;2022-09-17T05:41:06;11.84;83.55
65058;HTU21D;51644;51.068;5.860;2022-09-17T05:42:05;11.85;83.54
65058;HTU21D;51644;51.068;5.860;2022-09-17T05:43:05;11.88;83.60
65058;HTU21D;51644;51.068;5.860;2022-09-17T05:44:04;11.87;83.59
65058;HTU21D;51644;51.068;5.860;2022-09-17T05:45:03;11.88;83.71
65058;HTU21D;51644;51.068;5.860;2022-09-17T05:46:04;11.89;83.74
65058;HTU21D;51644;51.068;5.860;2022-09-17T05:47:03;11.89;83.74
65058;HTU21D;51644;51.068;5.860;2022-09-17T05:48:05;11.91;83.73
65058;HTU21D;51644;51.068;5.860;2022-09-17T05:49:04;11.97;83.67
65058;HTU21D;51644;51.068;5.860;2022-09-17T05:50:03;11.98;83.64
65058;HTU21D;51644;51.068;5.860;2022-09-17T05:51:01;11.98;83.73
65058;HTU21D;51644;51.068;5.860;2022-09-17T05:52:00;12.01;83.74
65058;HTU21D;51644;51.068;5.860;2022-09-17T05:53:05;12.01;83.84
65058;HTU21D;51644;51.068;5.860;2022-09-17T05:54:04;11.97;84.03
65058;HTU21D;51644;51.068;5.860;2022-09-17T05:55:03;11.94;84.48
65058;HTU21D;51644;51.068;5.860;2022-09-17T05:56:01;11.82;86.01
65058;HTU21D;51644;51.068;5.860;2022-09-17T05:57:00;11.77;85.48
65058;HTU21D;51644;51.068;5.860;2022-09-17T05:57:59;11.75;85.51
65058;HTU21D;51644;51.068;5.860;2022-09-17T05:58:58;11.72;85.69
65058;HTU21D;51644;51.068;5.860;2022-09-17T05:59:57;11.66;86.37
65058;HTU21D;51644;51.068;5.860;2022-09-17T06:01:00;11.66;86.11
65058;HTU21D;51644;51.068;5.860;2022-09-17T06:01:58;11.60;86.51
65058;HTU21D;51644;51.068;5.860;2022-09-17T06:02:57;11.62;86.36
65058;HTU21D;51644;51.068;5.860;2022-09-17T06:03:55;11.60;86.38
65058;HTU21D;51644;51.068;5.860;2022-09-17T06:04:54;11.57;86.58
65058;HTU21D;51644;51.068;5.860;2022-09-17T06:05:57;11.58;86.61
65058;HTU21D;51644;51.068;5.860;2022-09-17T06:06:56;11.61;86.47
65058;HTU21D;51644;51.068;5.860;2022-09-17T06:07:55;11.63;86.47
65058;HTU21D;51644;51.068;5.860;2022-09-17T06:08:53;11.67;86.42
65058;HTU21D;51644;51.068;5.860;2022-09-17T06:09:52;11.69;86.48
65058;HTU21D;51644;51.068;5.860;2022-09-17T06:10:51;11.70;86.48
65058;HTU21D;51644;51.068;5.860;2022-09-17T06:11:49;11.73;86.42
65058;HTU21D;51644;51.068;5.860;2022-09-17T06:12:54;11.78;86.32
65058;HTU21D;51644;51.068;5.860;2022-09-17T06:13:54;11.83;86.37
65058;HTU21D;51644;51.068;5.860;2022-09-17T06:14:53;11.91;86.30
65058;HTU21D;51644;51.068;5.860;2022-09-17T06:15:52;11.99;86.05
65058;HTU21D;51644;51.068;5.860;2022-09-17T06:16:51;12.04;85.98
65058;HTU21D;51644;51.068;5.860;2022-09-17T06:17:50;12.11;85.90
65058;HTU21D;51644;51.068;5.860;2022-09-17T06:18:49;12.19;85.69
65058;HTU21D;51644;51.068;5.860;2022-09-17T06:19:50;12.27;85.64
65058;HTU21D;51644;51.068;5.860;2022-09-17T06:20:59;12.35;85.45
65058;HTU21D;51644;51.068;5.860;2022-09-17T06:21:58;12.43;85.35
65058;HTU21D;51644;51.068;5.860;2022-09-17T06:22:57;12.48;85.19
65058;HTU21D;51644;51.068;5.860;2022-09-17T06:23:56;12.56;85.09
65058;HTU21D;51644;51.068;5.860;2022-09-17T06:24:55;12.62;85.03
65058;HTU21D;51644;51.068;5.860;2022-09-17T06:25:55;12.58;85.00
65058;HTU21D;51644;51.068;5.860;2022-09-17T06:26:54;12.60;85.01
65058;HTU21D;51644;51.068;5.860;2022-09-17T06:27:53;12.63;84.96
65058;HTU21D;51644;51.068;5.860;2022-09-17T06:28:51;12.66;84.92
65058;HTU21D;51644;51.068;5.860;2022-09-17T06:29:50;12.70;84.97
65058;HTU21D;51644;51.068;5.860;2022-09-17T06:30:48;12.74;84.68
65058;HTU21D;51644;51.068;5.860;2022-09-17T06:31:50;12.78;84.56
65058;HTU21D;51644;51.068;5.860;2022-09-17T06:32:49;12.82;84.48
65058;HTU21D;51644;51.068;5.860;2022-09-17T06:33:47;12.89;84.34
65058;HTU21D;51644;51.068;5.860;2022-09-17T06:34:46;12.89;84.39
65058;HTU21D;51644;51.068;5.860;2022-09-17T06:35:46;12.90;84.32
65058;HTU21D;51644;51.068;5.860;2022-09-17T06:36:45;12.91;84.22
65058;HTU21D;51644;51.068;5.860;2022-09-17T06:37:45;12.93;84.19
65058;HTU21D;51644;51.068;5.860;2022-09-17T06:38:44;12.93;84.02
65058;HTU21D;51644;51.068;5.860;2022-09-17T06:39:42;12.91;84.07
65058;HTU21D;51644;51.068;5.860;2022-09-17T06:40:43;12.87;84.28
65058;HTU21D;51644;51.068;5.860;2022-09-17T06:41:41;12.92;84.15
65058;HTU21D;51644;51.068;5.860;2022-09-17T06:42:40;12.90;84.23
65058;HTU21D;51644;51.068;5.860;2022-09-17T06:43:39;12.90;84.16
65058;HTU21D;51644;51.068;5.860;2022-09-17T06:44:38;12.94;84.19
65058;HTU21D;51644;51.068;5.860;2022-09-17T06:45:38;12.97;84.11
65058;HTU21D;51644;51.068;5.860;2022-09-17T06:46:36;13.04;83.98
65058;HTU21D;51644;51.068;5.860;2022-09-17T06:47:35;13.09;83.79